Time,TemperatureF,DewpointF,PressureIn,WindDirection,WindDirectionDegrees,WindSpeedMPH,WindSpeedGustMPH,Humidity,HourlyPrecipIn,Conditions,Clouds,dailyrainin,SoftwareType,DateUTC
2013-01-07 00:04:00,35.6,28.4,30.41,North,0,0.0,-999.9,75,-99.99,,,-99.99,,2013-01-07 05:04:00,
2013-01-07 00:08:00,35.6,28.4,30.41,North,0,0.0,-999.9,75,-99.99,,,-99.99,,2013-01-07 05:08:00,
2013-01-07 00:14:00,37.4,28.4,30.42,North,0,0.0,-999.9,70,-99.99,,,-99.99,,2013-01-07 05:14:00,
2013-01-07 00:20:00,35.6,28.4,30.42,North,0,0.0,-999.9,75,-99.99,,,-99.99,,2013-01-07 05:20:00,
2013-01-07 00:24:00,35.6,28.4,30.42,North,0,0.0,-999.9,75,-99.99,,,-99.99,,2013-01-07 05:24:00,
2013-01-07 00:30:00,35.6,28.4,30.43,North,0,0.0,-999.9,75,-99.99,,,-99.99,,2013-01-07 05:30:00,
2013-01-07 00:38:00,35.6,28.4,30.43,North,0,0.0,-999.9,75,-99.99,,,-99.99,,2013-01-07 05:38:00,
2013-01-07 00:44:00,35.6,28.4,30.43,North,0,0.0,-999.9,75,-99.99,,,-99.99,,2013-01-07 05:44:00,
2013-01-07 00:54:00,35.6,28.4,30.43,North,0,0.0,-999.9,75,-99.99,,,-99.99,,2013-01-07 05:54:00,
2013-01-07 01:00:00,35.6,28.4,30.44,North,0,0.0,-999.9,75,-99.99,,,-99.99,,2013-01-07 06:00:00,
2013-01-07 01:08:00,35.6,28.4,30.44,North,0,0.0,-999.9,75,-99.99,,,-99.99,,2013-01-07 06:08:00,
2013-01-07 01:43:00,33.8,28.4,30.45,North,0,0.0,-999.9,81,-99.99,,,-99.99,,2013-01-07 06:43:00,
2013-01-07 01:49:00,33.8,28.4,30.45,North,0,0.0,-999.9,81,-99.99,,,-99.99,,2013-01-07 06:49:00,
2013-01-07 02:02:00,33.8,28.4,30.45,North,0,0.0,-999.9,81,-99.99,,,-99.99,,2013-01-07 07:02:00,
2013-01-07 02:09:00,33.8,28.4,30.45,North,0,0.0,-999.9,81,-99.99,,,-99.99,,2013-01-07 07:09:00,
2013-01-07 02:19:00,33.8,28.4,30.46,North,0,0.0,-999.9,81,-99.99,,,-99.99,,2013-01-07 07:19:00,
2013-01-07 02:26:00,32.0,26.6,30.46,North,0,0.0,-999.9,80,-99.99,,,-99.99,,2013-01-07 07:26:00,
2013-01-07 02:35:00,32.0,28.4,30.46,North,0,0.0,-999.9,87,-99.99,,,-99.99,,2013-01-07 07:35:00,
2013-01-07 02:40:00,32.0,28.4,30.47,North,0,0.0,-999.9,87,-99.99,,,-99.99,,2013-01-07 07:40:00,
2013-01-07 02:49:00,32.0,28.4,30.47,North,0,0.0,-999.9,87,-99.99,,,-99.99,,2013-01-07 07:49:00,
2013-01-07 02:54:00,32.0,28.4,30.47,North,0,0.0,-999.9,87,-99.99,,,-99.99,,2013-01-07 07:54:00,
2013-01-07 03:00:00,30.2,26.6,30.47,NNE,32,0.0,-999.9,86,-99.99,,,-99.99,,2013-01-07 08:00:00,
2013-01-07 03:08:00,30.2,26.6,30.47,NNE,32,0.0,-999.9,86,-99.99,,,-99.99,,2013-01-07 08:08:00,
2013-01-07 03:14:00,30.2,26.6,30.47,North,0,0.0,-999.9,86,-99.99,,,-99.99,,2013-01-07 08:14:00,
2013-01-07 03:20:00,30.2,26.6,30.47,North,0,0.0,-999.9,86,-99.99,,,-99.99,,2013-01-07 08:20:00,
2013-01-07 03:28:00,30.2,26.6,30.47,North,0,0.0,-999.9,86,-99.99,,,-99.99,,2013-01-07 08:28:00,
2013-01-07 03:34:00,30.2,26.6,30.48,North,0,0.0,-999.9,86,-99.99,,,-99.99,,2013-01-07 08:34:00,
2013-01-07 03:40:00,30.2,26.6,30.48,North,0,0.0,-999.9,86,-99.99,,,-99.99,,2013-01-07 08:40:00,
2013-01-07 03:48:00,30.2,26.6,30.48,North,0,0.0,-999.9,86,-99.99,,,-99.99,,2013-01-07 08:48:00,
2013-01-07 03:54:00,30.2,26.6,30.48,North,0,0.0,-999.9,86,-99.99,,,-99.99,,2013-01-07 08:54:00,
2013-01-07 04:01:00,32.0,28.4,30.48,North,0,0.0,-999.9,87,-99.99,,,-99.99,,2013-01-07 09:01:00,
2013-01-07 04:08:00,32.0,28.4,30.48,North,0,0.0,-999.9,87,-99.99,,,-99.99,,2013-01-07 09:08:00,
2013-01-07 04:14:00,32.0,28.4,30.49,North,0,0.0,-999.9,87,-99.99,,,-99.99,,2013-01-07 09:14:00,
2013-01-07 04:20:00,32.0,28.4,30.49,North,0,0.0,-999.9,87,-99.99,,,-99.99,,2013-01-07 09:20:00,
2013-01-07 04:28:00,32.0,28.4,30.49,North,0,0.0,-999.9,87,-99.99,,,-99.99,,2013-01-07 09:28:00,
2013-01-07 04:34:00,32.0,28.4,30.49,North,0,0.0,-999.9,87,-99.99,,,-99.99,,2013-01-07 09:34:00,
2013-01-07 04:41:00,32.0,28.4,30.50,North,0,0.0,-999.9,87,-99.99,,,-99.99,,2013-01-07 09:41:00,
2013-01-07 04:48:00,32.0,28.4,30.50,North,0,0.0,-999.9,87,-99.99,,,-99.99,,2013-01-07 09:48:00,
2013-01-07 04:54:00,32.0,28.4,30.50,North,0,0.0,-999.9,87,-99.99,,,-99.99,,2013-01-07 09:54:00,
2013-01-07 05:01:00,32.0,28.4,30.50,North,0,0.0,-999.9,87,-99.99,,,-99.99,,2013-01-07 10:01:00,
2013-01-07 05:07:00,32.0,28.4,30.50,North,0,0.0,-999.9,87,-99.99,,,-99.99,,2013-01-07 10:07:00,
2013-01-07 05:14:00,32.0,28.4,30.51,North,0,0.0,-999.9,87,-99.99,,,-99.99,,2013-01-07 10:14:00,
2013-01-07 05:20:00,32.0,28.4,30.52,North,0,0.0,-999.9,87,-99.99,,,-99.99,,2013-01-07 10:20:00,
2013-01-07 05:28:00,32.0,28.4,30.52,North,0,0.0,-999.9,87,-99.99,,,-99.99,,2013-01-07 10:28:00,
2013-01-07 05:34:00,32.0,28.4,30.53,North,0,0.0,-999.9,87,-99.99,,,-99.99,,2013-01-07 10:34:00,
2013-01-07 05:41:00,32.0,28.4,30.53,North,0,0.0,-999.9,87,-99.99,,,-99.99,,2013-01-07 10:41:00,
2013-01-07 05:48:00,32.0,28.4,30.53,North,0,0.0,-999.9,87,-99.99,,,-99.99,,2013-01-07 10:48:00,
2013-01-07 05:54:00,32.0,28.4,30.53,North,0,0.0,-999.9,87,-99.99,,,-99.99,,2013-01-07 10:54:00,
2013-01-07 06:00:00,32.0,28.4,30.54,North,0,0.0,-999.9,87,-99.99,,,-99.99,,2013-01-07 11:00:00,
2013-01-07 06:08:00,32.0,28.4,30.54,North,0,0.0,-999.9,87,-99.99,,,-99.99,,2013-01-07 11:08:00,
2013-01-07 06:14:00,32.0,28.4,30.55,North,0,0.0,-999.9,87,-99.99,,,-99.99,,2013-01-07 11:14:00,
2013-01-07 06:20:00,33.8,30.2,30.55,North,0,0.0,-999.9,87,-99.99,,,-99.99,,2013-01-07 11:20:00,
2013-01-07 06:29:00,33.8,30.2,30.55,North,0,0.0,-999.9,87,-99.99,,,-99.99,,2013-01-07 11:29:00,
2013-01-07 06:35:00,32.0,28.4,30.55,North,0,0.0,-999.9,87,-99.99,,,-99.99,,2013-01-07 11:35:00,
2013-01-07 06:40:00,32.0,28.4,30.56,North,0,0.0,-999.9,87,-99.99,,,-99.99,,2013-01-07 11:40:00,
2013-01-07 06:49:00,32.0,28.4,30.56,North,0,0.0,-999.9,87,-99.99,,,-99.99,,2013-01-07 11:49:00,
2013-01-07 06:54:00,32.0,28.4,30.57,North,0,0.0,-999.9,87,-99.99,,,-99.99,,2013-01-07 11:54:00,
2013-01-07 07:00:00,32.0,28.4,30.57,North,0,0.0,-999.9,87,-99.99,,,-99.99,,2013-01-07 12:00:00,
2013-01-07 07:08:00,32.0,28.4,30.57,North,0,0.0,-999.9,87,-99.99,,,-99.99,,2013-01-07 12:08:00,
2013-01-07 07:15:00,32.0,28.4,30.58,North,0,0.0,-999.9,87,-99.99,,,-99.99,,2013-01-07 12:15:00,
2013-01-07 07:20:00,32.0,28.4,30.58,North,0,0.0,-999.9,87,-99.99,,,-99.99,,2013-01-07 12:20:00,
2013-01-07 07:28:00,32.0,28.4,30.58,North,0,0.0,-999.9,87,-99.99,,,-99.99,,2013-01-07 12:28:00,
2013-01-07 07:34:00,33.8,28.4,30.58,North,0,0.0,-999.9,81,-99.99,,,-99.99,,2013-01-07 12:34:00,
2013-01-07 07:41:00,33.8,28.4,30.59,North,0,0.0,-999.9,81,-99.99,,,-99.99,,2013-01-07 12:41:00,
2013-01-07 07:48:00,33.8,28.4,30.59,North,0,0.0,-999.9,81,-99.99,,,-99.99,,2013-01-07 12:48:00,
2013-01-07 07:54:00,33.8,28.4,30.60,North,0,0.0,-999.9,81,-99.99,,,-99.99,,2013-01-07 12:54:00,
2013-01-07 08:00:00,35.6,30.2,30.60,East,98,1.2,-999.9,81,-99.99,,,-99.99,,2013-01-07 13:00:00,
2013-01-07 08:08:00,35.6,30.2,30.60,East,98,1.2,-999.9,81,-99.99,,,-99.99,,2013-01-07 13:08:00,
2013-01-07 08:14:00,35.6,28.4,30.61,ENE,60,2.3,-999.9,75,-99.99,,,-99.99,,2013-01-07 13:14:00,
2013-01-07 08:20:00,37.4,28.4,30.61,NE,46,6.9,-999.9,70,-99.99,,,-99.99,,2013-01-07 13:20:00,
2013-01-07 08:28:00,37.4,28.4,30.61,NE,46,6.9,-999.9,70,-99.99,,,-99.99,,2013-01-07 13:28:00,
2013-01-07 08:34:00,39.2,28.4,30.62,NE,50,6.9,-999.9,65,-99.99,,,-99.99,,2013-01-07 13:34:00,
2013-01-07 08:40:00,39.2,28.4,30.62,NE,50,6.9,-999.9,65,-99.99,,,-99.99,,2013-01-07 13:40:00,
2013-01-07 08:49:00,39.2,26.6,30.62,NNE,33,5.8,-999.9,61,-99.99,,,-99.99,,2013-01-07 13:49:00,
2013-01-07 08:54:00,41.0,26.6,30.62,NNE,30,8.1,-999.9,57,-99.99,,,-99.99,,2013-01-07 13:54:00,
2013-01-07 09:00:00,41.0,26.6,30.63,NE,51,4.6,-999.9,57,-99.99,,,-99.99,,2013-01-07 14:00:00,
2013-01-07 09:08:00,41.0,26.6,30.63,NE,51,4.6,-999.9,57,-99.99,,,-99.99,,2013-01-07 14:08:00,
2013-01-07 09:14:00,41.0,26.6,30.63,NNE,20,4.6,-999.9,57,-99.99,,,-99.99,,2013-01-07 14:14:00,
2013-01-07 09:20:00,41.0,26.6,30.63,NNE,12,3.5,-999.9,57,-99.99,,,-99.99,,2013-01-07 14:20:00,
2013-01-07 09:29:00,41.0,26.6,30.63,NNE,12,3.5,-999.9,57,-99.99,,,-99.99,,2013-01-07 14:29:00,
2013-01-07 09:36:00,41.0,26.6,30.64,NNE,24,8.1,-999.9,57,-99.99,,,-99.99,,2013-01-07 14:36:00,
2013-01-07 09:44:00,41.0,26.6,30.64,NE,50,6.9,-999.9,57,-99.99,,,-99.99,,2013-01-07 14:44:00,
2013-01-07 09:50:00,41.0,26.6,30.65,NE,43,1.2,-999.9,57,-99.99,,,-99.99,,2013-01-07 14:50:00,
2013-01-07 09:58:00,41.0,26.6,30.65,NE,43,1.2,-999.9,57,-99.99,,,-99.99,,2013-01-07 14:58:00,
2013-01-07 10:04:00,41.0,24.8,30.66,NNE,25,13.8,-999.9,53,-99.99,,,-99.99,,2013-01-07 15:04:00,
2013-01-07 10:11:00,41.0,23.0,30.67,North,6,4.6,-999.9,49,-99.99,,,-99.99,,2013-01-07 15:11:00,
2013-01-07 10:18:00,41.0,23.0,30.67,North,6,4.6,-999.9,49,-99.99,,,-99.99,,2013-01-07 15:18:00,
2013-01-07 10:24:00,42.8,24.8,30.66,NNE,19,12.7,-999.9,49,-99.99,,,-99.99,,2013-01-07 15:24:00,
2013-01-07 10:30:00,42.8,24.8,30.67,NNE,21,4.6,-999.9,49,-99.99,,,-99.99,,2013-01-07 15:30:00,
2013-01-07 10:38:00,42.8,24.8,30.67,NNE,21,4.6,-999.9,49,-99.99,,,-99.99,,2013-01-07 15:38:00,
2013-01-07 10:44:00,42.8,24.8,30.66,NNE,32,9.2,-999.9,49,-99.99,,,-99.99,,2013-01-07 15:44:00,
2013-01-07 10:50:00,42.8,24.8,30.67,ENE,75,3.5,-999.9,49,-99.99,,,-99.99,,2013-01-07 15:50:00,
2013-01-07 10:58:00,42.8,24.8,30.67,ENE,75,3.5,-999.9,49,-99.99,,,-99.99,,2013-01-07 15:58:00,
2013-01-07 11:04:00,44.6,24.8,30.66,NNE,31,5.8,-999.9,46,-99.99,,,-99.99,,2013-01-07 16:04:00,
2013-01-07 11:10:00,42.8,23.0,30.66,NE,46,4.6,-999.9,46,-99.99,,,-99.99,,2013-01-07 16:10:00,
2013-01-07 11:18:00,42.8,23.0,30.66,NE,46,4.6,-999.9,46,-99.99,,,-99.99,,2013-01-07 16:18:00,
2013-01-07 11:24:00,42.8,23.0,30.66,NNE,22,9.2,-999.9,46,-99.99,,,-99.99,,2013-01-07 16:24:00,
2013-01-07 11:30:00,42.8,23.0,30.66,NNE,22,9.2,-999.9,46,-99.99,,,-99.99,,2013-01-07 16:30:00,
2013-01-07 11:38:00,42.8,23.0,30.66,NNE,22,9.2,-999.9,46,-99.99,,,-99.99,,2013-01-07 16:38:00,
2013-01-07 11:44:00,44.6,24.8,30.66,NNE,29,11.5,-999.9,46,-99.99,,,-99.99,,2013-01-07 16:44:00,
2013-01-07 11:49:00,44.6,24.8,30.66,NNE,29,11.5,-999.9,46,-99.99,,,-99.99,,2013-01-07 16:49:00,
2013-01-07 11:58:00,44.6,24.8,30.66,North,9,6.9,-999.9,46,-99.99,,,-99.99,,2013-01-07 16:58:00,
2013-01-07 12:04:00,42.8,23.0,30.66,NNE,24,10.4,-999.9,46,-99.99,,,-99.99,,2013-01-07 17:04:00,
2013-01-07 12:10:00,42.8,21.2,30.67,NNE,33,4.6,-999.9,42,-99.99,,,-99.99,,2013-01-07 17:10:00,
2013-01-07 12:18:00,42.8,21.2,30.67,NNE,33,4.6,-999.9,42,-99.99,,,-99.99,,2013-01-07 17:18:00,
2013-01-07 12:24:00,42.8,21.2,30.66,NNE,18,8.1,-999.9,42,-99.99,,,-99.99,,2013-01-07 17:24:00,
2013-01-07 12:30:00,44.6,23.0,30.67,NNE,26,5.8,-999.9,43,-99.99,,,-99.99,,2013-01-07 17:30:00,
2013-01-07 12:38:00,44.6,23.0,30.67,NNE,26,5.8,-999.9,43,-99.99,,,-99.99,,2013-01-07 17:38:00,
2013-01-07 12:44:00,44.6,23.0,30.67,North,10,5.8,-999.9,43,-99.99,,,-99.99,,2013-01-07 17:44:00,
2013-01-07 12:50:00,44.6,23.0,30.67,NNE,29,5.8,-999.9,43,-99.99,,,-99.99,,2013-01-07 17:50:00,
2013-01-07 12:58:00,44.6,23.0,30.67,NNE,29,5.8,-999.9,43,-99.99,,,-99.99,,2013-01-07 17:58:00,
2013-01-07 13:04:00,44.6,23.0,30.67,East,85,4.6,-999.9,43,-99.99,,,-99.99,,2013-01-07 18:04:00,
2013-01-07 13:10:00,44.6,21.2,30.67,NNW,339,6.9,-999.9,39,-99.99,,,-99.99,,2013-01-07 18:10:00,
2013-01-07 13:18:00,44.6,21.2,30.67,NNW,339,6.9,-999.9,39,-99.99,,,-99.99,,2013-01-07 18:18:00,
2013-01-07 13:24:00,44.6,21.2,30.67,North,10,4.6,-999.9,39,-99.99,,,-99.99,,2013-01-07 18:24:00,
2013-01-07 13:30:00,44.6,21.2,30.67,North,10,4.6,-999.9,39,-99.99,,,-99.99,,2013-01-07 18:30:00,
2013-01-07 13:38:00,44.6,21.2,30.68,NNE,16,2.3,-999.9,39,-99.99,,,-99.99,,2013-01-07 18:38:00,
2013-01-07 13:44:00,44.6,19.4,30.67,East,95,3.5,-999.9,37,-99.99,,,-99.99,,2013-01-07 18:44:00,
2013-01-07 13:50:00,44.6,19.4,30.68,NE,45,0.0,-999.9,37,-99.99,,,-99.99,,2013-01-07 18:50:00,
2013-01-07 13:58:00,44.6,19.4,30.68,NE,45,0.0,-999.9,37,-99.99,,,-99.99,,2013-01-07 18:58:00,
2013-01-07 14:04:00,44.6,19.4,30.68,NNE,26,4.6,-999.9,37,-99.99,,,-99.99,,2013-01-07 19:04:00,
2013-01-07 14:10:00,46.4,19.4,30.68,North,0,8.1,-999.9,34,-99.99,,,-99.99,,2013-01-07 19:10:00,
2013-01-07 14:18:00,46.4,19.4,30.68,North,0,8.1,-999.9,34,-99.99,,,-99.99,,2013-01-07 19:18:00,
2013-01-07 14:24:00,46.4,21.2,30.68,NW,317,0.0,-999.9,37,-99.99,,,-99.99,,2013-01-07 19:24:00,
2013-01-07 14:30:00,46.4,21.2,30.69,SW,232,0.0,-999.9,37,-99.99,,,-99.99,,2013-01-07 19:30:00,
2013-01-07 14:38:00,46.4,21.2,30.69,SW,232,0.0,-999.9,37,-99.99,,,-99.99,,2013-01-07 19:38:00,
2013-01-07 14:43:00,46.4,21.2,30.69,North,10,4.6,-999.9,37,-99.99,,,-99.99,,2013-01-07 19:43:00,
2013-01-07 14:50:00,44.6,21.2,30.69,NNE,22,9.2,-999.9,39,-99.99,,,-99.99,,2013-01-07 19:50:00,
2013-01-07 14:58:00,44.6,21.2,30.69,NNE,22,9.2,-999.9,39,-99.99,,,-99.99,,2013-01-07 19:58:00,
2013-01-07 15:04:00,44.6,21.2,30.69,East,97,2.3,-999.9,39,-99.99,,,-99.99,,2013-01-07 20:04:00,
2013-01-07 15:10:00,44.6,21.2,30.70,ESE,109,2.3,-999.9,39,-99.99,,,-99.99,,2013-01-07 20:10:00,
2013-01-07 15:18:00,44.6,21.2,30.70,ESE,109,2.3,-999.9,39,-99.99,,,-99.99,,2013-01-07 20:18:00,
2013-01-07 15:30:00,44.6,19.4,30.71,North,0,0.0,-999.9,37,-99.99,,,-99.99,,2013-01-07 20:30:00,
2013-01-07 15:38:00,44.6,19.4,30.71,North,0,0.0,-999.9,37,-99.99,,,-99.99,,2013-01-07 20:38:00,
2013-01-07 15:44:00,42.8,19.4,30.72,North,0,0.0,-999.9,39,-99.99,,,-99.99,,2013-01-07 20:44:00,
2013-01-07 15:50:00,42.8,19.4,30.72,NE,45,3.5,-999.9,39,-99.99,,,-99.99,,2013-01-07 20:50:00,
2013-01-07 15:58:00,42.8,19.4,30.72,NE,45,3.5,-999.9,39,-99.99,,,-99.99,,2013-01-07 20:58:00,
2013-01-07 16:04:00,42.8,19.4,30.72,NE,39,0.0,-999.9,39,-99.99,,,-99.99,,2013-01-07 21:04:00,
2013-01-07 16:10:00,42.8,21.2,30.73,North,0,0.0,-999.9,42,-99.99,,,-99.99,,2013-01-07 21:10:00,
2013-01-07 16:19:00,42.8,21.2,30.73,North,0,0.0,-999.9,42,-99.99,,,-99.99,,2013-01-07 21:19:00,
2013-01-07 16:24:00,41.0,19.4,30.73,NNW,330,1.2,-999.9,42,-99.99,,,-99.99,,2013-01-07 21:24:00,
2013-01-07 16:30:00,41.0,19.4,30.73,North,0,0.0,-999.9,42,-99.99,,,-99.99,,2013-01-07 21:30:00,
2013-01-07 16:38:00,41.0,19.4,30.73,North,0,0.0,-999.9,42,-99.99,,,-99.99,,2013-01-07 21:38:00,
2013-01-07 16:44:00,41.0,19.4,30.74,North,0,0.0,-999.9,42,-99.99,,,-99.99,,2013-01-07 21:44:00,
2013-01-07 16:50:00,39.2,19.4,30.74,North,0,0.0,-999.9,45,-99.99,,,-99.99,,2013-01-07 21:50:00,
2013-01-07 16:58:00,39.2,19.4,30.74,North,0,0.0,-999.9,45,-99.99,,,-99.99,,2013-01-07 21:58:00,
2013-01-07 17:04:00,39.2,19.4,30.75,North,0,0.0,-999.9,45,-99.99,,,-99.99,,2013-01-07 22:04:00,
2013-01-07 17:10:00,39.2,21.2,30.75,North,0,0.0,-999.9,49,-99.99,,,-99.99,,2013-01-07 22:10:00,
2013-01-07 17:18:00,39.2,21.2,30.75,North,0,0.0,-999.9,49,-99.99,,,-99.99,,2013-01-07 22:18:00,
2013-01-07 17:24:00,39.2,21.2,30.75,North,0,0.0,-999.9,49,-99.99,,,-99.99,,2013-01-07 22:24:00,
2013-01-07 17:30:00,39.2,19.4,30.75,North,0,0.0,-999.9,45,-99.99,,,-99.99,,2013-01-07 22:30:00,
2013-01-07 17:38:00,39.2,19.4,30.75,North,0,0.0,-999.9,45,-99.99,,,-99.99,,2013-01-07 22:38:00,
2013-01-07 17:43:00,39.2,21.2,30.75,North,0,0.0,-999.9,49,-99.99,,,-99.99,,2013-01-07 22:43:00,
2013-01-07 17:49:00,39.2,21.2,30.75,North,0,0.0,-999.9,49,-99.99,,,-99.99,,2013-01-07 22:49:00,
2013-01-07 17:58:00,37.4,21.2,30.75,North,0,0.0,-999.9,52,-99.99,,,-99.99,,2013-01-07 22:58:00,
2013-01-07 18:03:00,37.4,21.2,30.76,North,0,0.0,-999.9,52,-99.99,,,-99.99,,2013-01-07 23:03:00,
2013-01-07 18:09:00,37.4,21.2,30.76,North,0,0.0,-999.9,52,-99.99,,,-99.99,,2013-01-07 23:09:00,
2013-01-07 18:18:00,37.4,21.2,30.76,North,0,0.0,-999.9,52,-99.99,,,-99.99,,2013-01-07 23:18:00,
2013-01-07 18:24:00,37.4,23.0,30.76,North,0,0.0,-999.9,56,-99.99,,,-99.99,,2013-01-07 23:24:00,
2013-01-07 18:30:00,37.4,23.0,30.76,North,0,0.0,-999.9,56,-99.99,,,-99.99,,2013-01-07 23:30:00,
2013-01-07 19:20:00,32.0,23.0,30.76,North,0,0.0,-999.9,69,-99.99,,,-99.99,,2013-01-08 00:20:00,
2013-01-07 19:26:00,32.0,23.0,30.76,North,0,0.0,-999.9,69,-99.99,,,-99.99,,2013-01-08 00:26:00,
2013-01-07 19:32:00,32.0,23.0,30.76,North,0,0.0,-999.9,69,-99.99,,,-99.99,,2013-01-08 00:32:00,
2013-01-07 19:38:00,32.0,23.0,30.76,North,0,0.0,-999.9,69,-99.99,,,-99.99,,2013-01-08 00:38:00,
2013-01-07 19:45:00,32.0,24.8,30.77,North,0,0.0,-999.9,75,-99.99,,,-99.99,,2013-01-08 00:45:00,
2013-01-07 19:51:00,32.0,24.8,30.77,North,0,0.0,-999.9,75,-99.99,,,-99.99,,2013-01-08 00:51:00,
2013-01-07 19:57:00,32.0,24.8,30.77,North,0,0.0,-999.9,75,-99.99,,,-99.99,,2013-01-08 00:57:00,
2013-01-07 20:03:00,30.2,23.0,30.76,North,0,0.0,-999.9,75,-99.99,,,-99.99,,2013-01-08 01:03:00,
2013-01-07 20:09:00,30.2,23.0,30.76,North,0,0.0,-999.9,75,-99.99,,,-99.99,,2013-01-08 01:09:00,
2013-01-07 20:16:00,30.2,23.0,30.76,North,0,0.0,-999.9,75,-99.99,,,-99.99,,2013-01-08 01:16:00,
2013-01-07 20:24:00,30.2,24.8,30.76,North,0,0.0,-999.9,80,-99.99,,,-99.99,,2013-01-08 01:24:00,
2013-01-07 20:30:00,30.2,24.8,30.76,North,0,0.0,-999.9,80,-99.99,,,-99.99,,2013-01-08 01:30:00,
2013-01-07 20:38:00,30.2,24.8,30.76,North,0,0.0,-999.9,80,-99.99,,,-99.99,,2013-01-08 01:38:00,
2013-01-07 20:44:00,28.4,23.0,30.76,North,0,0.0,-999.9,80,-99.99,,,-99.99,,2013-01-08 01:44:00,
2013-01-07 20:50:00,28.4,23.0,30.76,North,0,0.0,-999.9,80,-99.99,,,-99.99,,2013-01-08 01:50:00,
2013-01-07 20:58:00,28.4,23.0,30.76,North,0,0.0,-999.9,80,-99.99,,,-99.99,,2013-01-08 01:58:00,
2013-01-07 21:04:00,28.4,23.0,30.76,North,0,0.0,-999.9,80,-99.99,,,-99.99,,2013-01-08 02:04:00,
2013-01-07 21:10:00,28.4,23.0,30.76,North,0,0.0,-999.9,80,-99.99,,,-99.99,,2013-01-08 02:10:00,
2013-01-07 21:18:00,28.4,23.0,30.76,North,0,0.0,-999.9,80,-99.99,,,-99.99,,2013-01-08 02:18:00,
2013-01-07 21:24:00,28.4,23.0,30.76,North,0,0.0,-999.9,80,-99.99,,,-99.99,,2013-01-08 02:24:00,
2013-01-07 21:30:00,28.4,24.8,30.76,North,0,0.0,-999.9,86,-99.99,,,-99.99,,2013-01-08 02:30:00,
2013-01-07 21:38:00,28.4,24.8,30.76,North,0,0.0,-999.9,86,-99.99,,,-99.99,,2013-01-08 02:38:00,
2013-01-07 21:44:00,28.4,24.8,30.76,North,0,0.0,-999.9,86,-99.99,,,-99.99,,2013-01-08 02:44:00,
2013-01-07 21:51:00,26.6,23.0,30.76,North,0,0.0,-999.9,86,-99.99,,,-99.99,,2013-01-08 02:51:00,
2013-01-07 21:58:00,26.6,23.0,30.76,North,0,0.0,-999.9,86,-99.99,,,-99.99,,2013-01-08 02:58:00,
2013-01-07 22:04:00,28.4,24.8,30.76,North,0,0.0,-999.9,86,-99.99,,,-99.99,,2013-01-08 03:04:00,
2013-01-07 22:10:00,26.6,23.0,30.76,East,85,1.2,-999.9,86,-99.99,,,-99.99,,2013-01-08 03:10:00,
2013-01-07 22:18:00,26.6,23.0,30.76,East,85,1.2,-999.9,86,-99.99,,,-99.99,,2013-01-08 03:18:00,
2013-01-07 22:24:00,26.6,23.0,30.76,North,0,0.0,-999.9,86,-99.99,,,-99.99,,2013-01-08 03:24:00,
2013-01-07 22:30:00,28.4,24.8,30.77,North,0,0.0,-999.9,86,-99.99,,,-99.99,,2013-01-08 03:30:00,
2013-01-07 22:38:00,28.4,24.8,30.77,North,0,0.0,-999.9,86,-99.99,,,-99.99,,2013-01-08 03:38:00,
2013-01-07 22:44:00,26.6,23.0,30.76,SSE,154,0.0,-999.9,86,-99.99,,,-99.99,,2013-01-08 03:44:00,
2013-01-07 22:50:00,26.6,23.0,30.76,North,0,0.0,-999.9,86,-99.99,,,-99.99,,2013-01-08 03:50:00,
2013-01-07 22:58:00,26.6,23.0,30.76,North,0,0.0,-999.9,86,-99.99,,,-99.99,,2013-01-08 03:58:00,
2013-01-07 23:10:00,26.6,23.0,30.76,North,0,0.0,-999.9,86,-99.99,,,-99.99,,2013-01-08 04:10:00,
2013-01-07 23:18:00,26.6,23.0,30.76,North,0,0.0,-999.9,86,-99.99,,,-99.99,,2013-01-08 04:18:00,
2013-01-07 23:24:00,26.6,23.0,30.76,North,0,0.0,-999.9,86,-99.99,,,-99.99,,2013-01-08 04:24:00,
2013-01-07 23:30:00,26.6,23.0,30.76,North,0,0.0,-999.9,86,-99.99,,,-99.99,,2013-01-08 04:30:00,
2013-01-07 23:38:00,26.6,23.0,30.76,North,0,0.0,-999.9,86,-99.99,,,-99.99,,2013-01-08 04:38:00,
2013-01-07 23:44:00,26.6,23.0,30.76,North,0,0.0,-999.9,86,-99.99,,,-99.99,,2013-01-08 04:44:00,
2013-01-07 23:50:00,26.6,23.0,30.76,North,0,0.0,-999.9,86,-99.99,,,-99.99,,2013-01-08 04:50:00,
2013-01-07 23:57:00,26.6,23.0,30.76,North,0,0.0,-999.9,86,-99.99,,,-99.99,,2013-01-08 04:57:00,